sensor_id;sensor_type;location;lat;lon;timestamp;temperature;humidity
1135;DHT22;556;53.550;10.048;2022-10-15T00:00:25;18.70;51.50
1135;DHT22;556;53.550;10.048;2022-10-15T00:02:53;18.60;51.50
1135;DHT22;556;53.550;10.048;2022-10-15T00:05:20;18.60;51.60
1135;DHT22;556;53.550;10.048;2022-10-15T00:07:49;18.60;52.00
1135;DHT22;556;53.550;10.048;2022-10-15T00:10:16;18.60;51.60
1135;DHT22;556;53.550;10.048;2022-10-15T00:12:43;18.60;52.10
1135;DHT22;556;53.550;10.048;2022-10-15T00:15:11;18.60;51.70
1135;DHT22;556;53.550;10.048;2022-10-15T00:17:38;18.60;51.80
1135;DHT22;556;53.550;10.048;2022-10-15T00:20:07;18.50;51.90
1135;DHT22;556;53.550;10.048;2022-10-15T00:22:35;18.50;52.40
1135;DHT22;556;53.550;10.048;2022-10-15T00:25:05;18.40;52.00
1135;DHT22;556;53.550;10.048;2022-10-15T00:27:33;18.40;52.20
1135;DHT22;556;53.550;10.048;2022-10-15T00:30:00;18.30;52.20
1135;DHT22;556;53.550;10.048;2022-10-15T00:32:28;18.40;52.70
1135;DHT22;556;53.550;10.048;2022-10-15T00:34:55;18.30;52.70
1135;DHT22;556;53.550;10.048;2022-10-15T00:37:23;18.30;52.30
1135;DHT22;556;53.550;10.048;2022-10-15T00:39:50;18.30;52.40
1135;DHT22;556;53.550;10.048;2022-10-15T00:42:18;18.20;52.40
1135;DHT22;556;53.550;10.048;2022-10-15T00:44:49;18.20;52.90
1135;DHT22;556;53.550;10.048;2022-10-15T00:47:19;18.20;52.50
1135;DHT22;556;53.550;10.048;2022-10-15T00:49:54;18.20;52.50
1135;DHT22;556;53.550;10.048;2022-10-15T00:52:28;18.20;53.00
1135;DHT22;556;53.550;10.048;2022-10-15T00:55:03;18.30;53.00
1135;DHT22;556;53.550;10.048;2022-10-15T00:57:33;18.30;52.90
1135;DHT22;556;53.550;10.048;2022-10-15T01:00:03;18.40;52.40
1135;DHT22;556;53.550;10.048;2022-10-15T01:02:31;18.40;52.80
1135;DHT22;556;53.550;10.048;2022-10-15T01:04:58;18.40;52.80
1135;DHT22;556;53.550;10.048;2022-10-15T01:07:26;18.40;52.50
1135;DHT22;556;53.550;10.048;2022-10-15T01:09:53;18.40;52.90
1135;DHT22;556;53.550;10.048;2022-10-15T01:12:27;18.40;52.40
1135;DHT22;556;53.550;10.048;2022-10-15T01:15:02;18.50;53.00
1135;DHT22;556;53.550;10.048;2022-10-15T01:17:36;18.50;53.00
1135;DHT22;556;53.550;10.048;2022-10-15T01:20:31;18.40;52.60
1135;DHT22;556;53.550;10.048;2022-10-15T01:26:12;18.40;53.10
1135;DHT22;556;53.550;10.048;2022-10-15T01:28:55;18.40;52.70
1135;DHT22;556;53.550;10.048;2022-10-15T01:31:39;18.40;53.10
1135;DHT22;556;53.550;10.048;2022-10-15T01:34:13;18.50;52.90
1135;DHT22;556;53.550;10.048;2022-10-15T01:36:51;18.40;52.80
1135;DHT22;556;53.550;10.048;2022-10-15T01:39:26;18.40;52.90
1135;DHT22;556;53.550;10.048;2022-10-15T01:41:59;18.40;52.90
1135;DHT22;556;53.550;10.048;2022-10-15T01:44:30;18.40;53.40
1135;DHT22;556;53.550;10.048;2022-10-15T01:47:21;18.30;52.90
1135;DHT22;556;53.550;10.048;2022-10-15T01:49:52;18.20;53.00
1135;DHT22;556;53.550;10.048;2022-10-15T01:52:22;18.20;53.10
1135;DHT22;556;53.550;10.048;2022-10-15T01:54:52;18.10;53.10
1135;DHT22;556;53.550;10.048;2022-10-15T01:57:23;18.10;53.20
1135;DHT22;556;53.550;10.048;2022-10-15T01:59:51;18.10;53.30
1135;DHT22;556;53.550;10.048;2022-10-15T02:02:23;18.10;53.70
1135;DHT22;556;53.550;10.048;2022-10-15T02:04:51;18.00;53.20
1135;DHT22;556;53.550;10.048;2022-10-15T02:07:27;18.00;53.70
1135;DHT22;556;53.550;10.048;2022-10-15T02:09:58;17.90;53.30
1135;DHT22;556;53.550;10.048;2022-10-15T02:12:37;17.90;53.30
1135;DHT22;556;53.550;10.048;2022-10-15T02:15:15;17.80;53.30
1135;DHT22;556;53.550;10.048;2022-10-15T02:17:54;17.80;53.40
1135;DHT22;556;53.550;10.048;2022-10-15T02:20:29;17.80;53.90
1135;DHT22;556;53.550;10.048;2022-10-15T02:23:02;17.80;53.40
1135;DHT22;556;53.550;10.048;2022-10-15T02:25:32;17.80;53.40
1135;DHT22;556;53.550;10.048;2022-10-15T02:28:03;17.80;53.30
1135;DHT22;556;53.550;10.048;2022-10-15T02:30:32;17.80;53.80
1135;DHT22;556;53.550;10.048;2022-10-15T02:33:04;17.80;53.90
1135;DHT22;556;53.550;10.048;2022-10-15T02:35:33;17.80;53.30
1135;DHT22;556;53.550;10.048;2022-10-15T02:38:06;17.80;53.80
1135;DHT22;556;53.550;10.048;2022-10-15T02:40:36;17.90;53.30
1135;DHT22;556;53.550;10.048;2022-10-15T02:43:05;17.80;53.70
1135;DHT22;556;53.550;10.048;2022-10-15T02:45:35;17.80;53.30
1135;DHT22;556;53.550;10.048;2022-10-15T02:48:04;17.80;53.70
1135;DHT22;556;53.550;10.048;2022-10-15T02:50:32;17.80;53.20
1135;DHT22;556;53.550;10.048;2022-10-15T02:52:59;17.90;53.30
1135;DHT22;556;53.550;10.048;2022-10-15T02:55:26;17.80;53.20
1135;DHT22;556;53.550;10.048;2022-10-15T02:57:53;17.90;53.30
1135;DHT22;556;53.550;10.048;2022-10-15T03:00:21;17.80;53.20
1135;DHT22;556;53.550;10.048;2022-10-15T03:02:48;17.70;53.20
1135;DHT22;556;53.550;10.048;2022-10-15T03:05:18;17.70;53.30
1135;DHT22;556;53.550;10.048;2022-10-15T03:07:45;17.70;53.80
1135;DHT22;556;53.550;10.048;2022-10-15T03:10:14;17.60;53.30
1135;DHT22;556;53.550;10.048;2022-10-15T03:12:41;17.60;53.70
1135;DHT22;556;53.550;10.048;2022-10-15T03:15:10;17.50;53.70
1135;DHT22;556;53.550;10.048;2022-10-15T03:17:37;17.30;53.30
1135;DHT22;556;53.550;10.048;2022-10-15T03:20:05;17.20;53.40
1135;DHT22;556;53.550;10.048;2022-10-15T03:22:38;17.00;53.40
1135;DHT22;556;53.550;10.048;2022-10-15T03:25:06;17.00;53.80
1135;DHT22;556;53.550;10.048;2022-10-15T03:27:33;16.90;53.90
1135;DHT22;556;53.550;10.048;2022-10-15T03:30:00;16.80;53.50
1135;DHT22;556;53.550;10.048;2022-10-15T03:32:30;16.80;53.40
1135;DHT22;556;53.550;10.048;2022-10-15T03:34:57;17.90;54.20
1135;DHT22;556;53.550;10.048;2022-10-15T03:37:24;16.90;53.40
1135;DHT22;556;53.550;10.048;2022-10-15T03:39:53;16.90;53.70
1135;DHT22;556;53.550;10.048;2022-10-15T03:42:21;16.90;53.70
1135;DHT22;556;53.550;10.048;2022-10-15T03:44:49;16.90;53.30
1135;DHT22;556;53.550;10.048;2022-10-15T03:47:18;16.90;53.40
1135;DHT22;556;53.550;10.048;2022-10-15T03:49:47;16.90;53.40
1135;DHT22;556;53.550;10.048;2022-10-15T03:52:14;16.90;53.40
1135;DHT22;556;53.550;10.048;2022-10-15T03:54:43;16.90;53.80
1135;DHT22;556;53.550;10.048;2022-10-15T03:57:12;16.90;53.40
1135;DHT22;556;53.550;10.048;2022-10-15T03:59:44;16.90;53.40
1135;DHT22;556;53.550;10.048;2022-10-15T04:02:12;16.90;53.40
1135;DHT22;556;53.550;10.048;2022-10-15T04:04:40;16.90;53.80
1135;DHT22;556;53.550;10.048;2022-10-15T04:07:08;16.90;53.80
1135;DHT22;556;53.550;10.048;2022-10-15T04:09:35;16.90;53.40
1135;DHT22;556;53.550;10.048;2022-10-15T04:12:27;16.90;53.80
1135;DHT22;556;53.550;10.048;2022-10-15T04:14:55;17.00;53.80
1135;DHT22;556;53.550;10.048;2022-10-15T04:19:50;17.20;53.30
1135;DHT22;556;53.550;10.048;2022-10-15T04:22:18;17.20;53.30
1135;DHT22;556;53.550;10.048;2022-10-15T04:24:49;17.20;53.70
1135;DHT22;556;53.550;10.048;2022-10-15T04:27:26;17.30;53.60
1135;DHT22;556;53.550;10.048;2022-10-15T04:30:03;17.30;53.20
1135;DHT22;556;53.550;10.048;2022-10-15T04:34:58;17.40;53.20
1135;DHT22;556;53.550;10.048;2022-10-15T04:37:44;17.40;53.60
1135;DHT22;556;53.550;10.048;2022-10-15T04:40:11;17.50;53.60
1135;DHT22;556;53.550;10.048;2022-10-15T04:42:40;17.50;54.20
1135;DHT22;556;53.550;10.048;2022-10-15T04:45:08;17.50;53.20
1135;DHT22;556;53.550;10.048;2022-10-15T04:47:35;17.50;53.20
1135;DHT22;556;53.550;10.048;2022-10-15T04:50:08;17.50;53.20
1135;DHT22;556;53.550;10.048;2022-10-15T04:52:54;17.50;53.20
1135;DHT22;556;53.550;10.048;2022-10-15T04:55:22;17.50;53.30
1135;DHT22;556;53.550;10.048;2022-10-15T04:57:53;17.50;53.20
1135;DHT22;556;53.550;10.048;2022-10-15T05:00:27;17.50;53.30
1135;DHT22;556;53.550;10.048;2022-10-15T05:03:22;17.40;53.20
1135;DHT22;556;53.550;10.048;2022-10-15T05:05:59;17.40;53.70
1135;DHT22;556;53.550;10.048;2022-10-15T05:08:27;17.30;53.30
1135;DHT22;556;53.550;10.048;2022-10-15T05:11:13;17.30;53.30
1135;DHT22;556;53.550;10.048;2022-10-15T05:13:42;17.30;53.30
1135;DHT22;556;53.550;10.048;2022-10-15T05:16:12;17.30;53.30
1135;DHT22;556;53.550;10.048;2022-10-15T05:18:40;17.30;53.30
1135;DHT22;556;53.550;10.048;2022-10-15T05:21:09;17.30;53.30
1135;DHT22;556;53.550;10.048;2022-10-15T05:23:38;17.30;53.30
1135;DHT22;556;53.550;10.048;2022-10-15T05:26:30;17.30;53.30
1135;DHT22;556;53.550;10.048;2022-10-15T05:28:59;17.30;53.80
1135;DHT22;556;53.550;10.048;2022-10-15T05:31:30;17.30;53.30
1135;DHT22;556;53.550;10.048;2022-10-15T05:34:06;17.30;53.20
1135;DHT22;556;53.550;10.048;2022-10-15T05:36:39;17.30;53.20
1135;DHT22;556;53.550;10.048;2022-10-15T05:39:07;17.30;53.40
1135;DHT22;556;53.550;10.048;2022-10-15T05:41:40;17.30;53.40
1135;DHT22;556;53.550;10.048;2022-10-15T05:44:09;17.30;53.30
1135;DHT22;556;53.550;10.048;2022-10-15T05:46:37;17.20;53.20
1135;DHT22;556;53.550;10.048;2022-10-15T05:49:04;17.20;53.70
1135;DHT22;556;53.550;10.048;2022-10-15T05:51:41;17.20;53.80
1135;DHT22;556;53.550;10.048;2022-10-15T05:54:16;17.20;53.70
1135;DHT22;556;53.550;10.048;2022-10-15T05:56:43;17.20;53.70
1135;DHT22;556;53.550;10.048;2022-10-15T05:59:11;17.20;53.30
1135;DHT22;556;53.550;10.048;2022-10-15T06:01:38;17.20;53.40
1135;DHT22;556;53.550;10.048;2022-10-15T06:04:05;17.20;53.30
1135;DHT22;556;53.550;10.048;2022-10-15T06:06:34;17.20;53.20
1135;DHT22;556;53.550;10.048;2022-10-15T06:09:01;17.10;53.20
1135;DHT22;556;53.550;10.048;2022-10-15T06:11:28;17.10;53.20
1135;DHT22;556;53.550;10.048;2022-10-15T06:13:55;17.10;53.70
1135;DHT22;556;53.550;10.048;2022-10-15T06:16:24;17.20;53.30
1135;DHT22;556;53.550;10.048;2022-10-15T06:18:51;17.10;53.10
1135;DHT22;556;53.550;10.048;2022-10-15T06:21:19;17.10;53.10
1135;DHT22;556;53.550;10.048;2022-10-15T06:23:46;17.20;53.10
1135;DHT22;556;53.550;10.048;2022-10-15T06:26:13;17.20;53.60
1135;DHT22;556;53.550;10.048;2022-10-15T06:28:41;17.30;53.00
1135;DHT22;556;53.550;10.048;2022-10-15T06:31:08;17.30;53.00
1135;DHT22;556;53.550;10.048;2022-10-15T06:33:36;17.30;53.50
1135;DHT22;556;53.550;10.048;2022-10-15T06:36:05;17.30;53.10
1135;DHT22;556;53.550;10.048;2022-10-15T06:38:33;17.30;53.10
1135;DHT22;556;53.550;10.048;2022-10-15T06:41:03;17.30;53.60
1135;DHT22;556;53.550;10.048;2022-10-15T06:43:30;17.40;53.20
1135;DHT22;556;53.550;10.048;2022-10-15T06:45:58;17.30;53.10
1135;DHT22;556;53.550;10.048;2022-10-15T06:48:25;17.40;53.60
1135;DHT22;556;53.550;10.048;2022-10-15T06:50:53;17.40;53.20
1135;DHT22;556;53.550;10.048;2022-10-15T06:53:20;17.50;53.20
1135;DHT22;556;53.550;10.048;2022-10-15T07:00:43;17.60;53.10
1135;DHT22;556;53.550;10.048;2022-10-15T07:03:10;17.60;52.90
1135;DHT22;556;53.550;10.048;2022-10-15T07:05:37;17.70;52.90
1135;DHT22;556;53.550;10.048;2022-10-15T07:08:06;17.80;52.90
1135;DHT22;556;53.550;10.048;2022-10-15T07:10:33;17.80;53.30
1135;DHT22;556;53.550;10.048;2022-10-15T07:13:01;17.90;52.90
1135;DHT22;556;53.550;10.048;2022-10-15T07:15:28;18.00;52.90
1135;DHT22;556;53.550;10.048;2022-10-15T07:17:56;17.90;52.70
1135;DHT22;556;53.550;10.048;2022-10-15T07:20:27;18.10;52.80
1135;DHT22;556;53.550;10.048;2022-10-15T07:22:55;18.00;52.70
1135;DHT22;556;53.550;10.048;2022-10-15T07:27:57;18.00;52.60
1135;DHT22;556;53.550;10.048;2022-10-15T07:30:25;18.00;52.60
1135;DHT22;556;53.550;10.048;2022-10-15T07:32:54;18.00;52.70
1135;DHT22;556;53.550;10.048;2022-10-15T07:35:22;18.00;53.10
1135;DHT22;556;53.550;10.048;2022-10-15T07:37:49;17.90;52.70
1135;DHT22;556;53.550;10.048;2022-10-15T07:40:16;18.00;52.70
1135;DHT22;556;53.550;10.048;2022-10-15T07:42:51;18.10;53.10
1135;DHT22;556;53.550;10.048;2022-10-15T07:45:21;18.20;52.60
1135;DHT22;556;53.550;10.048;2022-10-15T07:47:48;18.40;53.10
1135;DHT22;556;53.550;10.048;2022-10-15T07:50:16;18.30;52.40
1135;DHT22;556;53.550;10.048;2022-10-15T07:52:43;18.40;52.80
1135;DHT22;556;53.550;10.048;2022-10-15T07:55:11;18.50;52.50
1135;DHT22;556;53.550;10.048;2022-10-15T07:57:38;18.50;52.50
1135;DHT22;556;53.550;10.048;2022-10-15T08:00:08;18.50;52.90
1135;DHT22;556;53.550;10.048;2022-10-15T08:02:38;18.60;52.30
1135;DHT22;556;53.550;10.048;2022-10-15T08:05:06;18.60;52.20
1135;DHT22;556;53.550;10.048;2022-10-15T08:07:34;18.60;52.40
1135;DHT22;556;53.550;10.048;2022-10-15T08:10:05;18.70;52.40
1135;DHT22;556;53.550;10.048;2022-10-15T08:12:33;18.80;52.30
1135;DHT22;556;53.550;10.048;2022-10-15T08:15:00;18.80;52.30
1135;DHT22;556;53.550;10.048;2022-10-15T08:17:29;18.90;52.30
1135;DHT22;556;53.550;10.048;2022-10-15T08:19:57;19.00;52.50
1135;DHT22;556;53.550;10.048;2022-10-15T08:22:24;19.10;52.30
1135;DHT22;556;53.550;10.048;2022-10-15T08:24:55;19.20;52.20
1135;DHT22;556;53.550;10.048;2022-10-15T08:27:22;19.10;52.10
1135;DHT22;556;53.550;10.048;2022-10-15T08:29:56;19.20;52.50
1135;DHT22;556;53.550;10.048;2022-10-15T08:32:23;19.20;52.30
1135;DHT22;556;53.550;10.048;2022-10-15T08:37:19;19.10;52.10
1135;DHT22;556;53.550;10.048;2022-10-15T08:39:47;19.10;52.10
1135;DHT22;556;53.550;10.048;2022-10-15T08:42:19;19.00;52.20
1135;DHT22;556;53.550;10.048;2022-10-15T08:44:52;18.90;52.10
1135;DHT22;556;53.550;10.048;2022-10-15T08:47:28;18.90;52.10
1135;DHT22;556;53.550;10.048;2022-10-15T08:50:02;18.80;52.10
1135;DHT22;556;53.550;10.048;2022-10-15T08:52:39;18.70;52.10
1135;DHT22;556;53.550;10.048;2022-10-15T08:55:09;18.80;52.10
1135;DHT22;556;53.550;10.048;2022-10-15T08:57:42;18.70;52.10
1135;DHT22;556;53.550;10.048;2022-10-15T09:00:14;18.70;52.10
1135;DHT22;556;53.550;10.048;2022-10-15T09:02:49;18.70;52.50
1135;DHT22;556;53.550;10.048;2022-10-15T09:05:27;18.80;52.60
1135;DHT22;556;53.550;10.048;2022-10-15T09:08:04;18.80;52.50
1135;DHT22;556;53.550;10.048;2022-10-15T09:10:42;18.80;51.90
1135;DHT22;556;53.550;10.048;2022-10-15T09:13:20;18.90;52.40
1135;DHT22;556;53.550;10.048;2022-10-15T09:15:52;19.00;52.40
1135;DHT22;556;53.550;10.048;2022-10-15T09:18:24;19.10;52.30
1135;DHT22;556;53.550;10.048;2022-10-15T09:20:53;19.00;51.80
1135;DHT22;556;53.550;10.048;2022-10-15T09:23:22;19.00;51.80
1135;DHT22;556;53.550;10.048;2022-10-15T09:25:57;19.10;52.20
1135;DHT22;556;53.550;10.048;2022-10-15T09:28:34;19.20;52.40
1135;DHT22;556;53.550;10.048;2022-10-15T09:31:04;19.20;52.30
1135;DHT22;556;53.550;10.048;2022-10-15T09:33:36;19.30;52.30
1135;DHT22;556;53.550;10.048;2022-10-15T09:36:16;19.30;51.70
1135;DHT22;556;53.550;10.048;2022-10-15T09:38:53;19.30;51.70
1135;DHT22;556;53.550;10.048;2022-10-15T09:41:30;19.30;51.60
1135;DHT22;556;53.550;10.048;2022-10-15T09:44:03;19.30;52.10
1135;DHT22;556;53.550;10.048;2022-10-15T09:46:42;19.40;51.70
1135;DHT22;556;53.550;10.048;2022-10-15T09:49:12;19.40;51.60
1135;DHT22;556;53.550;10.048;2022-10-15T09:51:56;19.50;52.10
1135;DHT22;556;53.550;10.048;2022-10-15T09:54:34;19.60;52.00
1135;DHT22;556;53.550;10.048;2022-10-15T09:57:05;19.80;52.00
1135;DHT22;556;53.550;10.048;2022-10-15T09:59:34;20.00;51.80
1135;DHT22;556;53.550;10.048;2022-10-15T10:02:09;20.00;51.60
1135;DHT22;556;53.550;10.048;2022-10-15T10:04:42;20.00;51.70
1135;DHT22;556;53.550;10.048;2022-10-15T10:07:29;20.10;51.70
1135;DHT22;556;53.550;10.048;2022-10-15T10:09:59;20.10;52.20
1135;DHT22;556;53.550;10.048;2022-10-15T10:12:32;20.10;51.70
1135;DHT22;556;53.550;10.048;2022-10-15T10:15:03;20.00;51.80
1135;DHT22;556;53.550;10.048;2022-10-15T10:17:31;20.00;51.40
1135;DHT22;556;53.550;10.048;2022-10-15T10:20:16;19.90;51.30
1135;DHT22;556;53.550;10.048;2022-10-15T10:22:46;19.90;51.70
1135;DHT22;556;53.550;10.048;2022-10-15T10:25:29;19.90;51.70
1135;DHT22;556;53.550;10.048;2022-10-15T10:27:58;20.00;51.30
1135;DHT22;556;53.550;10.048;2022-10-15T10:30:32;20.00;51.20
1135;DHT22;556;53.550;10.048;2022-10-15T10:33:01;20.00;51.00
1135;DHT22;556;53.550;10.048;2022-10-15T10:35:34;20.20;51.60
1135;DHT22;556;53.550;10.048;2022-10-15T10:38:03;20.20;50.90
1135;DHT22;556;53.550;10.048;2022-10-15T10:40:33;20.20;50.90
1135;DHT22;556;53.550;10.048;2022-10-15T10:43:17;20.40;51.40
1135;DHT22;556;53.550;10.048;2022-10-15T10:45:55;20.40;51.40
1135;DHT22;556;53.550;10.048;2022-10-15T10:48:25;20.30;50.90
1135;DHT22;556;53.550;10.048;2022-10-15T10:51:09;20.50;51.00
1135;DHT22;556;53.550;10.048;2022-10-15T10:53:45;20.60;51.00
1135;DHT22;556;53.550;10.048;2022-10-15T10:56:13;20.80;50.80
1135;DHT22;556;53.550;10.048;2022-10-15T10:58:42;20.90;51.20
1135;DHT22;556;53.550;10.048;2022-10-15T11:01:11;21.10;50.60
1135;DHT22;556;53.550;10.048;2022-10-15T11:03:40;21.20;50.60
1135;DHT22;556;53.550;10.048;2022-10-15T11:06:30;21.40;50.70
1135;DHT22;556;53.550;10.048;2022-10-15T11:09:09;21.50;51.10
1135;DHT22;556;53.550;10.048;2022-10-15T11:11:46;21.90;50.40
1135;DHT22;556;53.550;10.048;2022-10-15T11:14:22;21.90;50.80
1135;DHT22;556;53.550;10.048;2022-10-15T11:16:56;22.30;50.10
1135;DHT22;556;53.550;10.048;2022-10-15T11:19:33;22.40;50.00
1135;DHT22;556;53.550;10.048;2022-10-15T11:22:17;22.50;50.30
1135;DHT22;556;53.550;10.048;2022-10-15T11:24:58;22.80;49.70
1135;DHT22;556;53.550;10.048;2022-10-15T11:27:51;22.80;49.70
1135;DHT22;556;53.550;10.048;2022-10-15T11:30:29;22.90;50.00
1135;DHT22;556;53.550;10.048;2022-10-15T11:33:05;23.00;50.00
1135;DHT22;556;53.550;10.048;2022-10-15T11:35:42;23.40;49.40
1135;DHT22;556;53.550;10.048;2022-10-15T11:38:19;23.30;49.80
1135;DHT22;556;53.550;10.048;2022-10-15T11:41:19;23.40;48.80
1135;DHT22;556;53.550;10.048;2022-10-15T11:44:00;23.20;48.80
1135;DHT22;556;53.550;10.048;2022-10-15T11:46:37;23.00;48.80
1135;DHT22;556;53.550;10.048;2022-10-15T11:49:19;23.00;49.10
1135;DHT22;556;53.550;10.048;2022-10-15T11:52:03;22.70;48.90
1135;DHT22;556;53.550;10.048;2022-10-15T11:54:36;22.70;48.90
1135;DHT22;556;53.550;10.048;2022-10-15T11:57:08;22.70;48.70
1135;DHT22;556;53.550;10.048;2022-10-15T11:59:42;22.80;48.70
1135;DHT22;556;53.550;10.048;2022-10-15T12:02:12;22.90;48.50
1135;DHT22;556;53.550;10.048;2022-10-15T12:04:43;22.90;48.30
1135;DHT22;556;53.550;10.048;2022-10-15T12:07:16;22.80;48.20
1135;DHT22;556;53.550;10.048;2022-10-15T12:09:47;22.90;48.70
1135;DHT22;556;53.550;10.048;2022-10-15T12:12:25;22.90;48.70
1135;DHT22;556;53.550;10.048;2022-10-15T12:15:06;23.00;49.00
1135;DHT22;556;53.550;10.048;2022-10-15T12:17:45;23.10;48.40
1135;DHT22;556;53.550;10.048;2022-10-15T12:20:15;22.90;47.80
1135;DHT22;556;53.550;10.048;2022-10-15T12:22:54;23.10;47.80
1135;DHT22;556;53.550;10.048;2022-10-15T12:25:43;23.20;48.10
1135;DHT22;556;53.550;10.048;2022-10-15T12:30:53;23.50;47.30
1135;DHT22;556;53.550;10.048;2022-10-15T12:33:25;23.50;47.80
1135;DHT22;556;53.550;10.048;2022-10-15T12:35:57;23.50;48.40
1135;DHT22;556;53.550;10.048;2022-10-15T12:38:27;23.50;47.20
1135;DHT22;556;53.550;10.048;2022-10-15T12:41:04;23.80;46.70
1135;DHT22;556;53.550;10.048;2022-10-15T12:43:35;23.90;46.60
1135;DHT22;556;53.550;10.048;2022-10-15T12:46:05;23.70;46.50
1135;DHT22;556;53.550;10.048;2022-10-15T12:48:36;23.70;47.00
1135;DHT22;556;53.550;10.048;2022-10-15T12:51:37;23.40;46.40
1135;DHT22;556;53.550;10.048;2022-10-15T12:54:36;23.30;46.40
1135;DHT22;556;53.550;10.048;2022-10-15T13:00:38;23.30;46.40
1135;DHT22;556;53.550;10.048;2022-10-15T13:06:23;24.10;46.40
1135;DHT22;556;53.550;10.048;2022-10-15T13:08:54;24.50;46.40
1135;DHT22;556;53.550;10.048;2022-10-15T13:11:26;24.70;46.10
1135;DHT22;556;53.550;10.048;2022-10-15T13:13:58;24.80;46.50
1135;DHT22;556;53.550;10.048;2022-10-15T13:16:28;25.00;45.80
1135;DHT22;556;53.550;10.048;2022-10-15T13:18:56;25.20;45.40
1135;DHT22;556;53.550;10.048;2022-10-15T13:21:46;25.10;45.00
1135;DHT22;556;53.550;10.048;2022-10-15T13:24:17;24.90;45.10
1135;DHT22;556;53.550;10.048;2022-10-15T13:26:45;24.90;45.70
1135;DHT22;556;53.550;10.048;2022-10-15T13:29:15;24.70;45.50
1135;DHT22;556;53.550;10.048;2022-10-15T13:31:44;24.40;45.40
1135;DHT22;556;53.550;10.048;2022-10-15T13:34:23;23.90;44.90
1135;DHT22;556;53.550;10.048;2022-10-15T13:36:51;23.80;45.50
1135;DHT22;556;53.550;10.048;2022-10-15T13:39:27;23.50;45.50
1135;DHT22;556;53.550;10.048;2022-10-15T13:42:06;23.20;45.00
1135;DHT22;556;53.550;10.048;2022-10-15T13:44:34;23.10;45.00
1135;DHT22;556;53.550;10.048;2022-10-15T13:47:02;23.00;45.50
1135;DHT22;556;53.550;10.048;2022-10-15T13:49:42;23.00;45.00
1135;DHT22;556;53.550;10.048;2022-10-15T13:52:10;22.90;45.30
1135;DHT22;556;53.550;10.048;2022-10-15T13:54:37;23.00;45.30
1135;DHT22;556;53.550;10.048;2022-10-15T13:57:12;23.00;44.70
1135;DHT22;556;53.550;10.048;2022-10-15T13:59:44;23.30;45.30
1135;DHT22;556;53.550;10.048;2022-10-15T14:02:13;23.90;45.60
1135;DHT22;556;53.550;10.048;2022-10-15T14:04:40;24.70;45.80
1135;DHT22;556;53.550;10.048;2022-10-15T14:07:21;25.70;45.00
1135;DHT22;556;53.550;10.048;2022-10-15T14:09:49;25.90;45.20
1135;DHT22;556;53.550;10.048;2022-10-15T14:12:17;26.30;45.10
1135;DHT22;556;53.550;10.048;2022-10-15T14:14:45;26.50;45.00
1135;DHT22;556;53.550;10.048;2022-10-15T14:17:22;26.70;44.90
1135;DHT22;556;53.550;10.048;2022-10-15T14:19:51;27.00;44.20
1135;DHT22;556;53.550;10.048;2022-10-15T14:22:21;27.10;44.70
1135;DHT22;556;53.550;10.048;2022-10-15T14:24:51;27.20;44.50
1135;DHT22;556;53.550;10.048;2022-10-15T14:27:20;27.30;44.30
1135;DHT22;556;53.550;10.048;2022-10-15T14:29:49;27.10;43.40
1135;DHT22;556;53.550;10.048;2022-10-15T14:32:24;26.90;43.80
1135;DHT22;556;53.550;10.048;2022-10-15T14:34:53;26.50;43.70
1135;DHT22;556;53.550;10.048;2022-10-15T14:37:28;26.00;43.90
1135;DHT22;556;53.550;10.048;2022-10-15T14:40:07;25.60;43.90
1135;DHT22;556;53.550;10.048;2022-10-15T14:42:38;25.30;44.00
1135;DHT22;556;53.550;10.048;2022-10-15T14:45:20;24.70;43.70
1135;DHT22;556;53.550;10.048;2022-10-15T14:47:52;24.60;44.10
1135;DHT22;556;53.550;10.048;2022-10-15T14:50:23;24.60;43.70
1135;DHT22;556;53.550;10.048;2022-10-15T14:52:52;24.50;44.10
1135;DHT22;556;53.550;10.048;2022-10-15T14:55:27;24.30;44.10
1135;DHT22;556;53.550;10.048;2022-10-15T14:57:59;24.10;43.60
1135;DHT22;556;53.550;10.048;2022-10-15T15:00:31;23.80;44.10
1135;DHT22;556;53.550;10.048;2022-10-15T15:03:02;23.50;43.70
1135;DHT22;556;53.550;10.048;2022-10-15T15:05:30;23.50;44.30
1135;DHT22;556;53.550;10.048;2022-10-15T15:08:09;23.20;43.80
1135;DHT22;556;53.550;10.048;2022-10-15T15:10:36;23.10;43.80
1135;DHT22;556;53.550;10.048;2022-10-15T15:13:03;23.10;44.30
1135;DHT22;556;53.550;10.048;2022-10-15T15:15:30;23.00;43.70
1135;DHT22;556;53.550;10.048;2022-10-15T15:17:57;22.90;43.80
1135;DHT22;556;53.550;10.048;2022-10-15T15:20:25;22.80;44.20
1135;DHT22;556;53.550;10.048;2022-10-15T15:22:54;22.70;43.90
1135;DHT22;556;53.550;10.048;2022-10-15T15:25:26;22.60;44.50
1135;DHT22;556;53.550;10.048;2022-10-15T15:27:54;22.50;44.50
1135;DHT22;556;53.550;10.048;2022-10-15T15:30:23;22.40;44.00
1135;DHT22;556;53.550;10.048;2022-10-15T15:32:50;22.30;44.10
1135;DHT22;556;53.550;10.048;2022-10-15T15:35:20;22.30;44.20
1135;DHT22;556;53.550;10.048;2022-10-15T15:37:51;22.20;44.70
1135;DHT22;556;53.550;10.048;2022-10-15T15:40:18;22.00;44.30
1135;DHT22;556;53.550;10.048;2022-10-15T15:42:46;21.90;44.40
1135;DHT22;556;53.550;10.048;2022-10-15T15:45:18;21.70;44.60
1135;DHT22;556;53.550;10.048;2022-10-15T15:47:45;21.70;44.80
1135;DHT22;556;53.550;10.048;2022-10-15T15:50:12;21.60;44.90
1135;DHT22;556;53.550;10.048;2022-10-15T15:52:40;21.60;45.40
1135;DHT22;556;53.550;10.048;2022-10-15T15:55:09;21.30;45.10
1135;DHT22;556;53.550;10.048;2022-10-15T15:57:36;21.30;45.30
1135;DHT22;556;53.550;10.048;2022-10-15T16:00:06;21.20;45.70
1135;DHT22;556;53.550;10.048;2022-10-15T16:02:34;21.20;45.40
1135;DHT22;556;53.550;10.048;2022-10-15T16:05:01;21.20;45.50
1135;DHT22;556;53.550;10.048;2022-10-15T16:07:28;21.10;46.00
1135;DHT22;556;53.550;10.048;2022-10-15T16:09:55;21.10;45.70
1135;DHT22;556;53.550;10.048;2022-10-15T16:12:24;21.10;45.90
1135;DHT22;556;53.550;10.048;2022-10-15T16:14:51;21.10;45.90
1135;DHT22;556;53.550;10.048;2022-10-15T16:19:46;21.00;45.90
1135;DHT22;556;53.550;10.048;2022-10-15T16:22:14;21.00;46.10
1135;DHT22;556;53.550;10.048;2022-10-15T16:24:41;21.00;46.20
1135;DHT22;556;53.550;10.048;2022-10-15T16:27:08;20.90;46.30
1135;DHT22;556;53.550;10.048;2022-10-15T16:29:36;20.90;46.90
1135;DHT22;556;53.550;10.048;2022-10-15T16:32:04;20.70;46.60
1135;DHT22;556;53.550;10.048;2022-10-15T16:34:31;20.70;46.70
1135;DHT22;556;53.550;10.048;2022-10-15T16:36:58;20.70;47.20
1135;DHT22;556;53.550;10.048;2022-10-15T16:39:25;20.60;46.90
1135;DHT22;556;53.550;10.048;2022-10-15T16:41:54;20.60;47.00
1135;DHT22;556;53.550;10.048;2022-10-15T16:44:21;20.60;47.50
1135;DHT22;556;53.550;10.048;2022-10-15T16:46:50;20.50;47.10
1135;DHT22;556;53.550;10.048;2022-10-15T16:49:17;20.50;47.60
1135;DHT22;556;53.550;10.048;2022-10-15T16:51:44;20.40;47.20
1135;DHT22;556;53.550;10.048;2022-10-15T16:54:12;20.40;47.40
1135;DHT22;556;53.550;10.048;2022-10-15T16:56:40;20.40;47.90
1135;DHT22;556;53.550;10.048;2022-10-15T16:59:07;20.40;47.90